Felix-Klein-Gymnasium, Gttingen, 150m NN
Donnes mto: Actuelle Sonntag, 20.10.2019 02:00
Date Horaire Temp. E. Hum. E. P.atmo. Pluie Vent Direction Direction Ensoleilleme P. de rose Temp au vent Rafales
20.10.2019 02:00 13,9 C 85 % 1006,0 hPa 0,0 mm 0,0 km/h (0 Bft) O-NO 286 0 min 11,4 C 13,9 C 0,0 km/h (0 Bft)
20.10.2019 01:45 13,9 C 85 % 1005,9 hPa 0,0 mm 0,2 km/h (0 Bft) O 276 0 min 11,4 C 13,9 C 9,7 km/h (2 Bft)
20.10.2019 01:30 13,8 C 85 % 1006,2 hPa 0,0 mm 1,0 km/h (0 Bft) O 277 0 min 11,3 C 13,8 C 11,3 km/h (2 Bft)
20.10.2019 01:15 13,8 C 84 % 1006,3 hPa 0,0 mm 2,1 km/h (1 Bft) O 276 0 min 11,1 C 13,8 C 12,9 km/h (3 Bft)
20.10.2019 01:00 13,9 C 84 % 1006,1 hPa 0,0 mm 3,0 km/h (1 Bft) NO 308 0 min 11,2 C 13,9 C 14,5 km/h (3 Bft)
20.10.2019 00:45 14,0 C 83 % 1006,1 hPa 0,0 mm 0,7 km/h (0 Bft) O-NO 291 0 min 11,2 C 14,0 C 9,7 km/h (2 Bft)
20.10.2019 00:30 14,1 C 83 % 1006,0 hPa 0,0 mm 3,4 km/h (1 Bft) O-NO 298 0 min 11,3 C 14,1 C 14,5 km/h (3 Bft)
20.10.2019 00:15 14,1 C 83 % 1006,0 hPa 0,0 mm 2,5 km/h (1 Bft) NO 306 0 min 11,3 C 14,1 C 12,9 km/h (3 Bft)
20.10.2019 00:00 14,0 C 83 % 1006,0 hPa 0,0 mm 1,4 km/h (1 Bft) O-NO 286 0 min 11,2 C 14,0 C 12,9 km/h (3 Bft)
19.10.2019 22:45 14,1 C 82 % 1005,9 hPa 0,0 mm 0,9 km/h (0 Bft) O-NO 300 0 min 11,1 C 14,1 C 11,3 km/h (2 Bft)
19.10.2019 22:30 13,9 C 82 % 1005,7 hPa 0,0 mm 0,8 km/h (0 Bft) O 273 0 min 10,9 C 13,9 C 9,7 km/h (2 Bft)
19.10.2019 22:15 13,8 C 83 % 1005,6 hPa 0,0 mm 2,9 km/h (1 Bft) O 270 0 min 11,0 C 13,8 C 11,3 km/h (2 Bft)
19.10.2019 22:00 13,6 C 84 % 1005,5 hPa 0,0 mm 1,7 km/h (1 Bft) O 277 0 min 10,9 C 13,6 C 11,3 km/h (2 Bft)
19.10.2019 21:45 13,6 C 84 % 1005,5 hPa 0,0 mm 0,2 km/h (0 Bft) O-NO 290 0 min 10,9 C 13,6 C 6,4 km/h (2 Bft)
19.10.2019 21:30 13,8 C 84 % 1005,4 hPa 0,0 mm 1,3 km/h (1 Bft) NO 305 0 min 11,1 C 13,8 C 9,7 km/h (2 Bft)
19.10.2019 21:15 13,9 C 83 % 1005,1 hPa 0,0 mm 4,3 km/h (1 Bft) O-NO 302 0 min 11,1 C 13,9 C 12,9 km/h (3 Bft)
19.10.2019 21:00 14,1 C 83 % 1005,1 hPa 0,0 mm 3,1 km/h (1 Bft) O 275 0 min 11,3 C 14,1 C 12,9 km/h (3 Bft)
19.10.2019 20:45 14,1 C 83 % 1005,1 hPa 0,0 mm 3,1 km/h (1 Bft) NO 320 0 min 11,3 C 14,1 C 12,9 km/h (3 Bft)
19.10.2019 20:30 14,2 C 83 % 1004,9 hPa 0,0 mm 2,7 km/h (1 Bft) O-NO 293 0 min 11,4 C 14,2 C 14,5 km/h (3 Bft)
19.10.2019 20:15 14,3 C 82 % 1005,0 hPa 0,0 mm 4,0 km/h (1 Bft) NO 323 0 min 11,3 C 14,3 C 17,7 km/h (3 Bft)
19.10.2019 20:00 14,5 C 81 % 1004,8 hPa 0,0 mm 4,9 km/h (1 Bft) NO 312 0 min 11,3 C 14,5 C 14,5 km/h (3 Bft)
19.10.2019 19:45 14,6 C 81 % 1004,9 hPa 0,0 mm 5,2 km/h (1 Bft) NO 304 0 min 11,4 C 14,6 C 17,7 km/h (3 Bft)
19.10.2019 19:30 14,8 C 80 % 1004,7 hPa 0,0 mm 5,9 km/h (2 Bft) O-NO 290 0 min 11,4 C 14,8 C 17,7 km/h (3 Bft)
19.10.2019 19:15 14,9 C 80 % 1004,8 hPa 0,0 mm 6,6 km/h (2 Bft) O 281 0 min 11,5 C 14,9 C 16,1 km/h (3 Bft)
19.10.2019 19:00 15,1 C 79 % 1004,6 hPa 0,0 mm 7,0 km/h (2 Bft) NO 311 0 min 11,5 C 15,1 C 19,3 km/h (3 Bft)
19.10.2019 18:45 15,2 C 78 % 1004,6 hPa 0,0 mm 6,4 km/h (2 Bft) O 281 0 min 11,4 C 15,2 C 20,9 km/h (4 Bft)
19.10.2019 18:30 15,2 C 78 % 1004,6 hPa 0,0 mm 4,7 km/h (1 Bft) O 278 0 min 11,4 C 15,2 C 17,7 km/h (3 Bft)
19.10.2019 18:15 15,3 C 77 % 1004,4 hPa 0,0 mm 2,3 km/h (1 Bft) O-NO 294 0 min 11,3 C 15,3 C 12,9 km/h (3 Bft)
19.10.2019 18:00 15,5 C 76 % 1004,4 hPa 0,0 mm 3,4 km/h (1 Bft) O 277 0 min 11,3 C 15,5 C 16,1 km/h (3 Bft)
19.10.2019 17:45 15,6 C 75 % 1004,5 hPa 0,0 mm 6,1 km/h (2 Bft) NO 313 0 min 11,2 C 15,6 C 17,7 km/h (3 Bft)
19.10.2019 17:30 15,8 C 75 % 1004,3 hPa 0,0 mm 4,4 km/h (1 Bft) NO 305 0 min 11,4 C 15,8 C 20,9 km/h (4 Bft)
19.10.2019 17:15 15,8 C 76 % 1004,5 hPa 0,0 mm 5,8 km/h (2 Bft) NO 309 0 min 11,6 C 15,8 C 20,9 km/h (4 Bft)
19.10.2019 17:00 15,8 C 76 % 1004,5 hPa 0,0 mm 7,7 km/h (2 Bft) O-NO 299 0 min 11,6 C 15,8 C 20,9 km/h (4 Bft)
19.10.2019 16:45 15,9 C 75 % 1004,5 hPa 0,0 mm 5,3 km/h (1 Bft) O 266 0 min 11,5 C 15,9 C 19,3 km/h (3 Bft)
19.10.2019 16:30 15,8 C 76 % 1004,6 hPa 0,0 mm 5,5 km/h (1 Bft) O-NO 302 0 min 11,6 C 15,8 C 16,1 km/h (3 Bft)
19.10.2019 16:15 15,7 C 76 % 1004,4 hPa 0,0 mm 6,2 km/h (2 Bft) O 277 15 min 11,5 C 15,7 C 19,3 km/h (3 Bft)
19.10.2019 16:00 15,6 C 75 % 1004,6 hPa 0,0 mm 6,1 km/h (2 Bft) O 261 0 min 11,2 C 15,6 C 24,1 km/h (4 Bft)
19.10.2019 15:45 15,7 C 75 % 1004,7 hPa 0,0 mm 6,0 km/h (2 Bft) NO 318 0 min 11,3 C 15,7 C 20,9 km/h (4 Bft)
19.10.2019 15:30 15,7 C 74 % 1004,6 hPa 0,0 mm 8,9 km/h (2 Bft) O-NO 303 0 min 11,1 C 15,7 C 20,9 km/h (4 Bft)
19.10.2019 15:15 15,6 C 74 % 1004,6 hPa 0,0 mm 8,0 km/h (2 Bft) O-NO 302 0 min 11,0 C 15,6 C 24,1 km/h (4 Bft)
19.10.2019 15:00 15,6 C 75 % 1004,7 hPa 0,0 mm 10,0 km/h (2 Bft) O-NO 290 0 min 11,2 C 15,6 C 22,5 km/h (4 Bft)
19.10.2019 14:45 15,4 C 75 % 1004,7 hPa 0,0 mm 11,2 km/h (2 Bft) O-NO 301 0 min 11,0 C 15,4 C 25,7 km/h (4 Bft)
19.10.2019 14:30 15,4 C 75 % 1004,8 hPa 0,0 mm 10,5 km/h (2 Bft) O-NO 293 0 min 11,0 C 15,4 C 27,4 km/h (4 Bft)
19.10.2019 14:15 15,4 C 75 % 1004,9 hPa 0,0 mm 9,6 km/h (2 Bft) O 267 0 min 11,0 C 15,4 C 22,5 km/h (4 Bft)
19.10.2019 14:00 15,3 C 76 % 1005,0 hPa 0,0 mm 9,8 km/h (2 Bft) O 262 0 min 11,1 C 15,3 C 29,0 km/h (5 Bft)
19.10.2019 13:45 15,2 C 76 % 1005,2 hPa 0,0 mm 10,2 km/h (2 Bft) O-NO 302 0 min 11,0 C 15,2 C 24,1 km/h (4 Bft)
19.10.2019 13:30 15,1 C 77 % 1005,5 hPa 0,0 mm 10,3 km/h (2 Bft) O-NO 301 0 min 11,1 C 15,1 C 29,0 km/h (5 Bft)
19.10.2019 13:15 14,9 C 77 % 1005,6 hPa 0,0 mm 8,4 km/h (2 Bft) O 265 0 min 10,9 C 14,9 C 22,5 km/h (4 Bft)
19.10.2019 13:00 14,8 C 79 % 1005,8 hPa 0,0 mm 9,3 km/h (2 Bft) NO 305 0 min 11,2 C 14,8 C 22,5 km/h (4 Bft)
19.10.2019 12:45 14,8 C 78 % 1005,8 hPa 0,0 mm 10,1 km/h (2 Bft) O-NO 289 0 min 11,0 C 14,8 C 22,5 km/h (4 Bft)
19.10.2019 12:30 15,0 C 77 % 1005,8 hPa 0,0 mm 10,3 km/h (2 Bft) NO 305 15 min 11,0 C 15,0 C 25,7 km/h (4 Bft)
19.10.2019 12:15 15,0 C 77 % 1005,8 hPa 0,0 mm 10,3 km/h (2 Bft) N-NO 331 15 min 11,0 C 15,0 C 30,6 km/h (5 Bft)
19.10.2019 12:00 14,4 C 80 % 1005,9 hPa 0,0 mm 8,7 km/h (2 Bft) O-NO 296 15 min 11,0 C 14,4 C 33,8 km/h (5 Bft)
19.10.2019 11:45 13,7 C 81 % 1006,0 hPa 0,0 mm 8,7 km/h (2 Bft) O 276 0 min 10,5 C 13,7 C 22,5 km/h (4 Bft)
19.10.2019 11:30 12,9 C 84 % 1006,1 hPa 0,0 mm 4,8 km/h (1 Bft) O 269 15 min 10,3 C 12,9 C 19,3 km/h (3 Bft)
19.10.2019 11:15 12,6 C 83 % 1006,3 hPa 0,0 mm 2,9 km/h (1 Bft) O-NO 287 0 min 9,8 C 12,6 C 14,5 km/h (3 Bft)
19.10.2019 11:00 12,2 C 84 % 1006,2 hPa 0,0 mm 3,0 km/h (1 Bft) O 280 0 min 9,6 C 12,2 C 19,3 km/h (3 Bft)
19.10.2019 10:45 11,7 C 84 % 1006,3 hPa 0,0 mm 0,4 km/h (0 Bft) O-NO 291 0 min 9,1 C 11,7 C 9,7 km/h (2 Bft)
19.10.2019 10:30 11,4 C 84 % 1006,4 hPa 0,0 mm 0,5 km/h (0 Bft) NO 306 0 min 8,8 C 11,4 C 8,0 km/h (2 Bft)
19.10.2019 10:15 11,1 C 84 % 1006,5 hPa 0,0 mm 0,1 km/h (0 Bft) O-NO 298 0 min 8,5 C 11,1 C 6,4 km/h (2 Bft)
19.10.2019 10:00 10,9 C 84 % 1006,6 hPa 0,0 mm 0,8 km/h (0 Bft) NO 325 0 min 8,3 C 10,9 C 9,7 km/h (2 Bft)
19.10.2019 09:45 10,7 C 84 % 1006,6 hPa 0,0 mm 0,3 km/h (0 Bft) NO 307 0 min 8,1 C 10,7 C 8,0 km/h (2 Bft)
19.10.2019 09:30 10,4 C 85 % 1006,6 hPa 0,0 mm 0,2 km/h (0 Bft) NO 306 0 min 8,0 C 10,4 C 6,4 km/h (2 Bft)
19.10.2019 09:15 10,3 C 84 % 1006,7 hPa 0,0 mm 0,0 km/h (0 Bft) NO 306 0 min 7,7 C 10,3 C 1,6 km/h (1 Bft)
19.10.2019 09:00 10,3 C 84 % 1006,8 hPa 0,0 mm 0,0 km/h (0 Bft) NO 316 0 min 7,7 C 10,3 C 0,0 km/h (0 Bft)
19.10.2019 08:45 10,2 C 84 % 1006,7 hPa 0,0 mm 0,0 km/h (0 Bft) NO 313 0 min 7,6 C 10,2 C 0,0 km/h (0 Bft)
19.10.2019 08:30 10,3 C 84 % 1006,7 hPa 0,0 mm 0,1 km/h (0 Bft) NO 313 0 min 7,7 C 10,3 C 4,8 km/h (1 Bft)
19.10.2019 08:15 10,3 C 84 % 1006,7 hPa 0,0 mm 0,5 km/h (0 Bft) NO 317 0 min 7,7 C 10,3 C 9,7 km/h (2 Bft)
19.10.2019 08:00 10,3 C 84 % 1006,7 hPa 0,0 mm 0,0 km/h (0 Bft) O-NO 300 0 min 7,7 C 10,3 C 4,8 km/h (1 Bft)
19.10.2019 07:45 10,3 C 84 % 1006,9 hPa 0,0 mm 0,2 km/h (0 Bft) O-NO 294 0 min 7,7 C 10,3 C 6,4 km/h (2 Bft)
19.10.2019 07:30 10,2 C 84 % 1006,9 hPa 0,0 mm 1,0 km/h (0 Bft) O-NO 286 0 min 7,6 C 10,2 C 9,7 km/h (2 Bft)
19.10.2019 07:15 10,2 C 84 % 1007,1 hPa 0,0 mm 0,0 km/h (0 Bft) NO 317 0 min 7,6 C 10,2 C 1,6 km/h (1 Bft)
19.10.2019 07:00 10,3 C 83 % 1007,0 hPa 0,0 mm 0,0 km/h (0 Bft) O-NO 298 0 min 7,5 C 10,3 C 0,0 km/h (0 Bft)
19.10.2019 06:45 10,5 C 82 % 1007,2 hPa 0,0 mm 0,0 km/h (0 Bft) NO 304 0 min 7,6 C 10,5 C 0,0 km/h (0 Bft)
19.10.2019 06:30 10,6 C 81 % 1007,3 hPa 0,0 mm 0,0 km/h (0 Bft) NO 306 0 min 7,5 C 10,6 C 0,0 km/h (0 Bft)
19.10.2019 06:15 10,7 C 81 % 1007,3 hPa 0,0 mm 0,0 km/h (0 Bft) O 278 0 min 7,6 C 10,7 C 0,0 km/h (0 Bft)
19.10.2019 06:00 10,6 C 81 % 1007,5 hPa 0,0 mm 0,2 km/h (0 Bft) O 281 0 min 7,5 C 10,6 C 8,0 km/h (2 Bft)
19.10.2019 05:45 10,4 C 82 % 1007,5 hPa 0,0 mm 0,2 km/h (0 Bft) O 279 0 min 7,5 C 10,4 C 8,0 km/h (2 Bft)
19.10.2019 05:30 10,2 C 82 % 1007,5 hPa 0,0 mm 0,5 km/h (0 Bft) NO 305 0 min 7,3 C 10,2 C 9,7 km/h (2 Bft)
19.10.2019 05:15 10,0 C 82 % 1007,5 hPa 0,0 mm 0,0 km/h (0 Bft) NO 316 0 min 7,1 C 10,0 C 0,0 km/h (0 Bft)
19.10.2019 05:00 10,2 C 81 % 1007,7 hPa 0,0 mm 0,0 km/h (0 Bft) NO 306 0 min 7,1 C 10,2 C 0,0 km/h (0 Bft)
19.10.2019 04:45 10,4 C 80 % 1007,8 hPa 0,0 mm 1,7 km/h (1 Bft) NO 307 0 min 7,1 C 10,4 C 14,5 km/h (3 Bft)
19.10.2019 04:30 10,4 C 80 % 1008,0 hPa 0,0 mm 4,0 km/h (1 Bft) O 281 0 min 7,1 C 10,4 C 14,5 km/h (3 Bft)
19.10.2019 04:15 10,3 C 81 % 1007,8 hPa 0,0 mm 4,6 km/h (1 Bft) O-NO 300 0 min 7,2 C 10,3 C 14,5 km/h (3 Bft)
19.10.2019 04:00 10,2 C 81 % 1007,7 hPa 0,0 mm 2,8 km/h (1 Bft) O 280 0 min 7,1 C 10,2 C 12,9 km/h (3 Bft)
19.10.2019 03:45 10,1 C 82 % 1007,8 hPa 0,0 mm 2,1 km/h (1 Bft) O-NO 290 0 min 7,2 C 10,1 C 12,9 km/h (3 Bft)
19.10.2019 03:30 10,2 C 82 % 1008,1 hPa 0,0 mm 4,4 km/h (1 Bft) O-NO 302 0 min 7,3 C 10,2 C 11,3 km/h (2 Bft)
19.10.2019 03:15 10,2 C 82 % 1007,9 hPa 0,0 mm 3,0 km/h (1 Bft) O-NO 294 0 min 7,3 C 10,2 C 11,3 km/h (2 Bft)
19.10.2019 03:00 10,1 C 82 % 1008,0 hPa 0,0 mm 0,2 km/h (0 Bft) NO 306 0 min 7,2 C 10,1 C 8,0 km/h (2 Bft)
_ Min-Heure 05:15 15:15 17:30 - 05:00 - - - 05:15 05:15 05:00
Minimum _ 10,0 C 74 % 1004,3 hPa - 0,0 km/h (0 Bft) - - - 7,1 C 10,0 C 0,0 km/h (0 Bft)
_ Max-Heure 16:45 09:30 03:30 03:00 14:45 - - 11:30 16:30 16:45 12:00
Maximum _ 15,9 C 85 % 1008,1 hPa 0,0 mm 11,2 km/h
O-NO (2 Bft)
- - 15 min 11,6 C 15,9 C 33,8 km/h
O-NO (5 Bft)
Moyenne _ 13,0 C 81 % 1006,1 hPa #0,0 mm 3,4 km/h (1 Bft) O-NO - #0 min. 9,7 C 13,0 C 13,4 km/h (3 Bft)